FNA77A BIEG-BIRK
Flight info
| Callsign | FNA77A |
|---|---|
| Flight time | N/A |
| Altitude | 32000 |
| Route | VAD1A BRUSI DCT TIBRA |
| Aircraft | BE20/M-SDFGRWY/LB1 |
Departure
| Time | 2026-05-07 19:15 |
|---|---|
| Airport | Egilsstaðir Airport (BIEG) |
Arrival
| Time | N/A |
|---|---|
| Airport | Reykjavík Domestic Airport (BIRK) |
| Time | Latitude | Longitude | Altitude | Speed | Heading |
|---|---|---|---|---|---|
| 2026-05-07 19:07 | 65.27436 | -14.40763 | 86 ft | 0 kts | 113° |
| 2026-05-07 19:14 | 65.27440 | -14.40747 | 87 ft | 5 kts | 10° |
| 2026-05-07 19:14 | 65.27452 | -14.40947 | 86 ft | 22 kts | 284° |
| 2026-05-07 19:14 | 65.27532 | -14.41055 | 85 ft | 0 kts | 29° |
| 2026-05-07 19:15 | 65.27547 | -14.41038 | 84 ft | 13 kts | 24° |
| 2026-05-07 19:15 | 65.27874 | -14.40670 | 87 ft | 88 kts | 24° |
| 2026-05-07 19:15 | 65.28516 | -14.39916 | 527 ft | 111 kts | 25° |
| 2026-05-07 19:15 | 65.29353 | -14.38970 | 731 ft | 146 kts | 21° |
| 2026-05-07 19:16 | 65.30337 | -14.38142 | 1195 ft | 156 kts | 6° |
| 2026-05-07 19:16 | 65.31444 | -14.38453 | 1615 ft | 165 kts | 353° |
| 2026-05-07 19:16 | 65.32608 | -14.38891 | 2147 ft | 173 kts | 354° |
| 2026-05-07 19:16 | 65.33813 | -14.39336 | 2769 ft | 177 kts | 353° |
| 2026-05-07 19:17 | 65.35036 | -14.39789 | 3318 ft | 178 kts | 352° |
| 2026-05-07 19:17 | 65.36267 | -14.40244 | 3833 ft | 180 kts | 352° |
| 2026-05-07 19:17 | 65.37515 | -14.40712 | 4353 ft | 183 kts | 352° |
| 2026-05-07 19:17 | 65.38763 | -14.41176 | 4872 ft | 185 kts | 352° |
| 2026-05-07 19:18 | 65.40042 | -14.41651 | 5418 ft | 186 kts | 352° |
| 2026-05-07 19:18 | 65.41291 | -14.42354 | 5934 ft | 187 kts | 334° |
| 2026-05-07 19:18 | 65.42154 | -14.44703 | 6469 ft | 199 kts | 294° |
| 2026-05-07 19:18 | 65.42091 | -14.48069 | 6961 ft | 214 kts | 248° |
| 2026-05-07 19:19 | 65.41005 | -14.50488 | 7461 ft | 222 kts | 200° |
| 2026-05-07 19:19 | 65.39491 | -14.50509 | 7975 ft | 219 kts | 162° |
| 2026-05-07 19:19 | 65.37995 | -14.49743 | 8447 ft | 222 kts | 171° |
| 2026-05-07 19:19 | 65.36448 | -14.49329 | 8960 ft | 225 kts | 173° |
| 2026-05-07 19:20 | 65.34884 | -14.48994 | 9483 ft | 226 kts | 178° |
| 2026-05-07 19:20 | 65.33307 | -14.49038 | 10018 ft | 228 kts | 183° |
| 2026-05-07 19:20 | 65.31731 | -14.49483 | 10508 ft | 230 kts | 187° |
| 2026-05-07 19:20 | 65.30138 | -14.50075 | 11001 ft | 233 kts | 189° |
| 2026-05-07 19:21 | 65.28553 | -14.50768 | 11494 ft | 235 kts | 191° |
| 2026-05-07 19:21 | 65.26935 | -14.51539 | 12001 ft | 238 kts | 191° |
| 2026-05-07 19:21 | 65.25308 | -14.52346 | 12518 ft | 240 kts | 192° |
| 2026-05-07 19:21 | 65.23667 | -14.53174 | 13048 ft | 242 kts | 192° |
| 2026-05-07 19:22 | 65.22017 | -14.54010 | 13590 ft | 242 kts | 192° |
| 2026-05-07 19:22 | 65.20369 | -14.54848 | 14112 ft | 242 kts | 191° |
| 2026-05-07 19:22 | 65.18711 | -14.55686 | 14606 ft | 244 kts | 192° |
| 2026-05-07 19:22 | 65.17045 | -14.56535 | 15087 ft | 245 kts | 192° |
| 2026-05-07 19:23 | 65.15367 | -14.57383 | 15590 ft | 247 kts | 192° |
| 2026-05-07 19:23 | 65.13682 | -14.58264 | 16098 ft | 248 kts | 196° |
| 2026-05-07 19:23 | 65.12165 | -14.60134 | 16617 ft | 246 kts | 224° |
| 2026-05-07 19:23 | 65.11150 | -14.63312 | 17143 ft | 240 kts | 249° |
| 2026-05-07 19:24 | 65.10774 | -14.67090 | 17680 ft | 232 kts | 271° |
| 2026-05-07 19:24 | 65.10682 | -14.70852 | 18213 ft | 233 kts | 270° |
| 2026-05-07 19:24 | 65.10589 | -14.74729 | 18721 ft | 235 kts | 272° |
| 2026-05-07 19:24 | 65.10500 | -14.78616 | 19195 ft | 236 kts | 272° |
| 2026-05-07 19:25 | 65.10405 | -14.82517 | 19676 ft | 236 kts | 270° |
| 2026-05-07 19:25 | 65.10309 | -14.86410 | 20166 ft | 237 kts | 269° |
| 2026-05-07 19:25 | 65.10211 | -14.90298 | 20665 ft | 236 kts | 271° |
| 2026-05-07 19:25 | 65.10115 | -14.94172 | 21169 ft | 235 kts | 269° |
| 2026-05-07 19:26 | 65.10015 | -14.98048 | 21696 ft | 235 kts | 269° |
| 2026-05-07 19:26 | 65.09913 | -15.01938 | 22225 ft | 237 kts | 270° |
| 2026-05-07 19:26 | 65.09810 | -15.05841 | 22762 ft | 237 kts | 272° |
| 2026-05-07 19:26 | 65.09708 | -15.09727 | 23310 ft | 235 kts | 269° |
| 2026-05-07 19:27 | 65.09605 | -15.13597 | 23856 ft | 234 kts | 271° |
| 2026-05-07 19:27 | 65.09500 | -15.17431 | 24316 ft | 232 kts | 271° |
| 2026-05-07 19:27 | 65.09397 | -15.21250 | 24783 ft | 232 kts | 271° |
| 2026-05-07 19:27 | 65.09293 | -15.25058 | 25263 ft | 231 kts | 269° |
| 2026-05-07 19:28 | 65.09188 | -15.28838 | 25744 ft | 228 kts | 271° |
| 2026-05-07 19:28 | 65.09084 | -15.32576 | 26244 ft | 226 kts | 271° |
| 2026-05-07 19:28 | 65.08978 | -15.36273 | 26740 ft | 224 kts | 269° |
| 2026-05-07 19:28 | 65.08873 | -15.39923 | 27254 ft | 220 kts | 269° |
| 2026-05-07 19:29 | 65.08771 | -15.43521 | 27771 ft | 218 kts | 271° |
| 2026-05-07 19:29 | 65.08668 | -15.47026 | 28292 ft | 214 kts | 269° |
| 2026-05-07 19:29 | 65.08571 | -15.50514 | 28811 ft | 211 kts | 271° |
| 2026-05-07 19:29 | 65.08465 | -15.53993 | 29300 ft | 211 kts | 270° |
| 2026-05-07 19:30 | 65.08365 | -15.57458 | 29792 ft | 211 kts | 272° |
| 2026-05-07 19:30 | 65.08262 | -15.60972 | 30108 ft | 220 kts | 271° |
| 2026-05-07 19:30 | 65.08154 | -15.64716 | 30134 ft | 233 kts | 271° |
| 2026-05-07 19:30 | 65.08038 | -15.68616 | 30147 ft | 240 kts | 269° |
| 2026-05-07 19:31 | 65.07865 | -15.72602 | 30148 ft | 246 kts | 265° |
| 2026-05-07 19:31 | 65.07437 | -15.76581 | 30144 ft | 252 kts | 256° |
| 2026-05-07 19:31 | 65.06899 | -15.80569 | 30143 ft | 256 kts | 255° |
| 2026-05-07 19:31 | 65.06372 | -15.84631 | 30140 ft | 259 kts | 257° |
| 2026-05-07 19:32 | 65.05843 | -15.88741 | 30139 ft | 262 kts | 256° |
| 2026-05-07 19:32 | 65.05307 | -15.92884 | 30147 ft | 265 kts | 257° |
| 2026-05-07 19:32 | 65.04763 | -15.97060 | 30144 ft | 266 kts | 256° |
| 2026-05-07 19:32 | 65.04213 | -16.01251 | 30152 ft | 267 kts | 256° |
| 2026-05-07 19:33 | 65.03658 | -16.05453 | 30150 ft | 268 kts | 256° |
| 2026-05-07 19:33 | 65.03100 | -16.09667 | 30152 ft | 268 kts | 256° |
| 2026-05-07 19:33 | 65.02541 | -16.13872 | 30156 ft | 268 kts | 256° |
| 2026-05-07 19:33 | 65.01979 | -16.18092 | 30153 ft | 269 kts | 257° |
| 2026-05-07 19:34 | 65.01415 | -16.22321 | 30154 ft | 269 kts | 256° |
| 2026-05-07 19:34 | 65.00855 | -16.26496 | 30153 ft | 269 kts | 256° |
| 2026-05-07 19:34 | 65.00290 | -16.30711 | 30154 ft | 269 kts | 256° |
| 2026-05-07 19:34 | 64.99720 | -16.34941 | 30160 ft | 270 kts | 256° |
| 2026-05-07 19:35 | 64.99151 | -16.39165 | 30154 ft | 269 kts | 256° |
| 2026-05-07 19:35 | 64.98579 | -16.43391 | 30157 ft | 270 kts | 256° |
| 2026-05-07 19:35 | 64.98007 | -16.47614 | 30158 ft | 270 kts | 255° |
| 2026-05-07 19:35 | 64.97432 | -16.51844 | 30157 ft | 270 kts | 256° |
| 2026-05-07 19:36 | 64.96856 | -16.56069 | 30153 ft | 270 kts | 255° |
| 2026-05-07 19:36 | 64.96279 | -16.60295 | 30156 ft | 270 kts | 256° |
| 2026-05-07 19:36 | 64.95704 | -16.64503 | 30151 ft | 269 kts | 257° |
| 2026-05-07 19:36 | 64.95132 | -16.68675 | 30156 ft | 268 kts | 256° |
| 2026-05-07 19:37 | 64.94570 | -16.72737 | 30158 ft | 266 kts | 256° |
| 2026-05-07 19:37 | 64.93995 | -16.76902 | 30160 ft | 267 kts | 256° |
| 2026-05-07 19:37 | 64.93426 | -16.81015 | 30161 ft | 268 kts | 256° |
| 2026-05-07 19:37 | 64.92847 | -16.85200 | 30161 ft | 268 kts | 256° |
| 2026-05-07 19:38 | 64.92268 | -16.89365 | 30157 ft | 267 kts | 257° |
| 2026-05-07 19:38 | 64.91691 | -16.93512 | 30161 ft | 267 kts | 257° |
| 2026-05-07 19:38 | 64.91112 | -16.97657 | 30161 ft | 265 kts | 256° |
| 2026-05-07 19:38 | 64.90537 | -17.01773 | 30160 ft | 264 kts | 256° |
| 2026-05-07 19:39 | 64.89959 | -17.05880 | 30159 ft | 264 kts | 257° |
| 2026-05-07 19:39 | 64.89381 | -17.09988 | 30161 ft | 264 kts | 255° |
| 2026-05-07 19:39 | 64.88803 | -17.14088 | 30161 ft | 263 kts | 256° |
| 2026-05-07 19:39 | 64.88420 | -17.16795 | 30160 ft | 263 kts | 257° |
| 2026-05-07 19:40 | 64.87650 | -17.22238 | 30163 ft | 262 kts | 257° |
| 2026-05-07 19:40 | 64.87072 | -17.26310 | 30163 ft | 262 kts | 256° |
| 2026-05-07 19:40 | 64.86494 | -17.30381 | 30164 ft | 263 kts | 256° |
| 2026-05-07 19:40 | 64.85910 | -17.34474 | 30165 ft | 263 kts | 256° |
| 2026-05-07 19:41 | 64.85327 | -17.38549 | 30163 ft | 263 kts | 256° |
| 2026-05-07 19:41 | 64.84943 | -17.41240 | 30162 ft | 263 kts | 257° |
| 2026-05-07 19:41 | 64.84357 | -17.45324 | 30156 ft | 264 kts | 256° |
| 2026-05-07 19:41 | 64.83769 | -17.49409 | 30156 ft | 264 kts | 255° |
| 2026-05-07 19:42 | 64.83179 | -17.53495 | 30150 ft | 265 kts | 256° |
| 2026-05-07 19:42 | 64.82589 | -17.57582 | 30149 ft | 265 kts | 256° |
| 2026-05-07 19:42 | 64.81996 | -17.61677 | 30150 ft | 265 kts | 256° |
| 2026-05-07 19:42 | 64.81402 | -17.65766 | 30151 ft | 265 kts | 256° |
| 2026-05-07 19:43 | 64.80805 | -17.69877 | 30152 ft | 264 kts | 257° |
| 2026-05-07 19:43 | 64.80212 | -17.73942 | 30153 ft | 263 kts | 255° |
| 2026-05-07 19:43 | 64.79617 | -17.77999 | 30153 ft | 263 kts | 256° |
| 2026-05-07 19:43 | 64.79018 | -17.82072 | 30147 ft | 264 kts | 256° |
| 2026-05-07 19:44 | 64.78423 | -17.86131 | 30144 ft | 263 kts | 256° |
| 2026-05-07 19:44 | 64.77824 | -17.90192 | 30146 ft | 264 kts | 256° |
| 2026-05-07 19:44 | 64.77223 | -17.94264 | 30145 ft | 264 kts | 257° |
| 2026-05-07 19:44 | 64.76622 | -17.98332 | 30146 ft | 265 kts | 255° |
| 2026-05-07 19:45 | 64.76016 | -18.02411 | 30142 ft | 266 kts | 255° |
| 2026-05-07 19:45 | 64.75408 | -18.06504 | 30140 ft | 266 kts | 256° |
| 2026-05-07 19:45 | 64.74801 | -18.10586 | 30138 ft | 265 kts | 256° |
| 2026-05-07 19:45 | 64.74196 | -18.14631 | 30120 ft | 264 kts | 256° |
| 2026-05-07 19:46 | 64.73586 | -18.18697 | 30127 ft | 263 kts | 256° |
| 2026-05-07 19:46 | 64.72982 | -18.22741 | 30131 ft | 263 kts | 256° |
| 2026-05-07 19:46 | 64.72380 | -18.26741 | 30133 ft | 265 kts | 256° |
| 2026-05-07 19:46 | 64.71766 | -18.30819 | 30136 ft | 266 kts | 256° |
| 2026-05-07 19:47 | 64.71149 | -18.34903 | 30140 ft | 267 kts | 256° |
| 2026-05-07 19:47 | 64.70530 | -18.38999 | 30138 ft | 267 kts | 256° |
| 2026-05-07 19:47 | 64.69908 | -18.43102 | 30138 ft | 268 kts | 256° |
| 2026-05-07 19:47 | 64.69283 | -18.47211 | 30136 ft | 268 kts | 256° |
| 2026-05-07 19:48 | 64.68656 | -18.51324 | 30134 ft | 268 kts | 256° |
| 2026-05-07 19:48 | 64.68029 | -18.55429 | 30132 ft | 269 kts | 256° |
| 2026-05-07 19:48 | 64.67400 | -18.59535 | 30133 ft | 268 kts | 256° |
| 2026-05-07 19:48 | 64.66770 | -18.63640 | 30133 ft | 268 kts | 256° |
| 2026-05-07 19:49 | 64.66139 | -18.67745 | 30133 ft | 268 kts | 256° |
| 2026-05-07 19:49 | 64.65507 | -18.71840 | 30129 ft | 268 kts | 255° |
| 2026-05-07 19:49 | 64.64874 | -18.75941 | 30130 ft | 268 kts | 256° |
| 2026-05-07 19:49 | 64.64239 | -18.80036 | 30131 ft | 268 kts | 256° |
| 2026-05-07 19:50 | 64.63605 | -18.84126 | 30131 ft | 268 kts | 255° |
| 2026-05-07 19:50 | 64.62969 | -18.88213 | 30115 ft | 268 kts | 256° |
| 2026-05-07 19:50 | 64.62340 | -18.92249 | 30127 ft | 268 kts | 256° |
| 2026-05-07 19:50 | 64.61702 | -18.96331 | 30131 ft | 269 kts | 256° |
| 2026-05-07 19:51 | 64.61061 | -19.00427 | 30127 ft | 269 kts | 256° |
| 2026-05-07 19:51 | 64.60419 | -19.04519 | 30123 ft | 269 kts | 256° |
| 2026-05-07 19:51 | 64.59774 | -19.08618 | 30124 ft | 269 kts | 256° |
| 2026-05-07 19:51 | 64.59130 | -19.12706 | 30125 ft | 269 kts | 256° |
| 2026-05-07 19:52 | 64.58483 | -19.16803 | 30130 ft | 269 kts | 256° |
| 2026-05-07 19:52 | 64.57835 | -19.20896 | 30128 ft | 270 kts | 256° |
| 2026-05-07 19:52 | 64.57185 | -19.24988 | 30130 ft | 270 kts | 256° |
| 2026-05-07 19:52 | 64.56532 | -19.29090 | 30129 ft | 270 kts | 256° |
| 2026-05-07 19:53 | 64.55880 | -19.33184 | 30124 ft | 270 kts | 256° |
| 2026-05-07 19:53 | 64.55227 | -19.37274 | 30122 ft | 270 kts | 256° |
| 2026-05-07 19:53 | 64.54572 | -19.41364 | 30125 ft | 270 kts | 256° |
| 2026-05-07 19:53 | 64.53914 | -19.45462 | 30124 ft | 270 kts | 256° |
| 2026-05-07 19:54 | 64.53256 | -19.49550 | 30117 ft | 270 kts | 256° |
| 2026-05-07 19:54 | 64.52599 | -19.53632 | 30119 ft | 270 kts | 256° |
| 2026-05-07 19:54 | 64.51946 | -19.57668 | 30119 ft | 270 kts | 256° |
| 2026-05-07 19:54 | 64.51285 | -19.61753 | 30084 ft | 270 kts | 256° |
| 2026-05-07 19:55 | 64.50623 | -19.65831 | 30107 ft | 270 kts | 256° |
| 2026-05-07 19:55 | 64.49961 | -19.69904 | 30117 ft | 270 kts | 256° |
| 2026-05-07 19:55 | 64.49296 | -19.73988 | 30119 ft | 270 kts | 256° |
| 2026-05-07 19:55 | 64.48631 | -19.78064 | 30118 ft | 271 kts | 256° |
| 2026-05-07 19:56 | 64.47962 | -19.82149 | 30118 ft | 271 kts | 256° |
| 2026-05-07 19:56 | 64.47292 | -19.86233 | 30113 ft | 270 kts | 256° |
| 2026-05-07 19:56 | 64.46622 | -19.90306 | 30121 ft | 270 kts | 256° |
| 2026-05-07 19:56 | 64.45951 | -19.94376 | 30123 ft | 270 kts | 256° |